sensor_id;sensor_type;location;lat;lon;timestamp;P1;P2;P0
63662;PMS5003;49815;51.618;0.336;2022-10-16T00:01:17;6;3;
63662;PMS5003;49815;51.618;0.336;2022-10-16T00:03:42;2;2;
63662;PMS5003;49815;51.618;0.336;2022-10-16T00:06:07;2;2;
63662;PMS5003;49815;51.618;0.336;2022-10-16T00:08:32;4;2;
63662;PMS5003;49815;51.618;0.336;2022-10-16T00:10:59;5;2;
63662;PMS5003;49815;51.618;0.336;2022-10-16T00:13:22;9;5;
63662;PMS5003;49815;51.618;0.336;2022-10-16T00:15:48;3;3;
63662;PMS5003;49815;51.618;0.336;2022-10-16T00:18:13;9;4;
63662;PMS5003;49815;51.618;0.336;2022-10-16T00:20:39;2;2;
63662;PMS5003;49815;51.618;0.336;2022-10-16T00:23:04;9;4;
63662;PMS5003;49815;51.618;0.336;2022-10-16T00:25:29;5;2;
63662;PMS5003;49815;51.618;0.336;2022-10-16T00:27:55;5;3;
63662;PMS5003;49815;51.618;0.336;2022-10-16T00:30:20;9;5;
63662;PMS5003;49815;51.618;0.336;2022-10-16T00:32:46;3;1;
63662;PMS5003;49815;51.618;0.336;2022-10-16T00:35:11;7;3;
63662;PMS5003;49815;51.618;0.336;2022-10-16T00:37:36;5;3;
63662;PMS5003;49815;51.618;0.336;2022-10-16T00:40:01;10;4;
63662;PMS5003;49815;51.618;0.336;2022-10-16T00:42:27;4;4;
63662;PMS5003;49815;51.618;0.336;2022-10-16T00:44:53;3;3;
63662;PMS5003;49815;51.618;0.336;2022-10-16T00:47:19;3;2;
63662;PMS5003;49815;51.618;0.336;2022-10-16T00:49:43;10;4;
63662;PMS5003;49815;51.618;0.336;2022-10-16T00:52:08;4;3;
63662;PMS5003;49815;51.618;0.336;2022-10-16T00:54:34;5;3;
63662;PMS5003;49815;51.618;0.336;2022-10-16T00:57:01;9;7;
63662;PMS5003;49815;51.618;0.336;2022-10-16T00:59:25;8;3;
63662;PMS5003;49815;51.618;0.336;2022-10-16T01:01:49;15;10;
63662;PMS5003;49815;51.618;0.336;2022-10-16T01:04:15;6;5;
63662;PMS5003;49815;51.618;0.336;2022-10-16T01:06:42;3;3;
63662;PMS5003;49815;51.618;0.336;2022-10-16T01:09:10;4;2;
63662;PMS5003;49815;51.618;0.336;2022-10-16T01:11:33;9;2;
63662;PMS5003;49815;51.618;0.336;2022-10-16T01:13:57;12;8;
63662;PMS5003;49815;51.618;0.336;2022-10-16T01:16:24;6;3;
63662;PMS5003;49815;51.618;0.336;2022-10-16T01:18:47;4;3;
63662;PMS5003;49815;51.618;0.336;2022-10-16T01:21:13;4;2;
63662;PMS5003;49815;51.618;0.336;2022-10-16T01:23:41;6;3;
63662;PMS5003;49815;51.618;0.336;2022-10-16T01:26:09;6;6;
63662;PMS5003;49815;51.618;0.336;2022-10-16T01:28:29;5;3;
63662;PMS5003;49815;51.618;0.336;2022-10-16T01:30:55;7;4;
63662;PMS5003;49815;51.618;0.336;2022-10-16T01:33:20;3;1;
63662;PMS5003;49815;51.618;0.336;2022-10-16T01:35:46;8;5;
63662;PMS5003;49815;51.618;0.336;2022-10-16T01:38:12;5;2;
63662;PMS5003;49815;51.618;0.336;2022-10-16T01:40:36;5;3;
63662;PMS5003;49815;51.618;0.336;2022-10-16T01:43:03;7;4;
63662;PMS5003;49815;51.618;0.336;2022-10-16T01:45:27;5;3;
63662;PMS5003;49815;51.618;0.336;2022-10-16T01:47:52;4;2;
63662;PMS5003;49815;51.618;0.336;2022-10-16T01:50:17;4;2;
63662;PMS5003;49815;51.618;0.336;2022-10-16T01:52:43;3;3;
63662;PMS5003;49815;51.618;0.336;2022-10-16T01:55:08;5;3;
63662;PMS5003;49815;51.618;0.336;2022-10-16T01:57:33;7;5;
63662;PMS5003;49815;51.618;0.336;2022-10-16T02:00:00;5;2;
63662;PMS5003;49815;51.618;0.336;2022-10-16T02:02:24;10;6;
63662;PMS5003;49815;51.618;0.336;2022-10-16T02:04:51;5;5;
63662;PMS5003;49815;51.618;0.336;2022-10-16T02:07:15;4;3;
63662;PMS5003;49815;51.618;0.336;2022-10-16T02:09:41;5;3;
63662;PMS5003;49815;51.618;0.336;2022-10-16T02:12:08;4;2;
63662;PMS5003;49815;51.618;0.336;2022-10-16T02:14:31;6;5;
63662;PMS5003;49815;51.618;0.336;2022-10-16T02:16:56;7;4;
63662;PMS5003;49815;51.618;0.336;2022-10-16T02:19:21;18;10;
63662;PMS5003;49815;51.618;0.336;2022-10-16T02:21:49;5;2;
63662;PMS5003;49815;51.618;0.336;2022-10-16T02:24:14;5;3;
63662;PMS5003;49815;51.618;0.336;2022-10-16T02:26:41;3;2;
63662;PMS5003;49815;51.618;0.336;2022-10-16T02:29:04;8;5;
63662;PMS5003;49815;51.618;0.336;2022-10-16T02:31:29;5;4;
63662;PMS5003;49815;51.618;0.336;2022-10-16T02:33:54;3;2;
63662;PMS5003;49815;51.618;0.336;2022-10-16T02:36:19;3;3;
63662;PMS5003;49815;51.618;0.336;2022-10-16T02:38:44;9;5;
63662;PMS5003;49815;51.618;0.336;2022-10-16T02:41:09;4;3;
63662;PMS5003;49815;51.618;0.336;2022-10-16T02:43:34;2;2;
63662;PMS5003;49815;51.618;0.336;2022-10-16T02:46:00;5;4;
63662;PMS5003;49815;51.618;0.336;2022-10-16T02:48:25;4;2;
63662;PMS5003;49815;51.618;0.336;2022-10-16T02:50:50;6;3;
63662;PMS5003;49815;51.618;0.336;2022-10-16T02:53:15;6;3;
63662;PMS5003;49815;51.618;0.336;2022-10-16T02:55:41;8;4;
63662;PMS5003;49815;51.618;0.336;2022-10-16T02:58:06;8;2;
63662;PMS5003;49815;51.618;0.336;2022-10-16T03:00:32;5;2;
63662;PMS5003;49815;51.618;0.336;2022-10-16T03:02:57;6;3;
63662;PMS5003;49815;51.618;0.336;2022-10-16T03:05:22;3;2;
63662;PMS5003;49815;51.618;0.336;2022-10-16T03:07:48;3;2;
63662;PMS5003;49815;51.618;0.336;2022-10-16T03:10:13;5;4;
63662;PMS5003;49815;51.618;0.336;2022-10-16T03:12:38;6;3;
63662;PMS5003;49815;51.618;0.336;2022-10-16T03:15:03;8;1;
63662;PMS5003;49815;51.618;0.336;2022-10-16T03:17:29;5;2;
63662;PMS5003;49815;51.618;0.336;2022-10-16T03:19:54;3;3;
63662;PMS5003;49815;51.618;0.336;2022-10-16T03:22:19;2;1;
63662;PMS5003;49815;51.618;0.336;2022-10-16T03:24:45;2;2;
63662;PMS5003;49815;51.618;0.336;2022-10-16T03:27:10;7;4;
63662;PMS5003;49815;51.618;0.336;2022-10-16T03:29:35;2;1;
63662;PMS5003;49815;51.618;0.336;2022-10-16T03:32:02;9;5;
63662;PMS5003;49815;51.618;0.336;2022-10-16T03:34:26;6;3;
63662;PMS5003;49815;51.618;0.336;2022-10-16T03:36:52;4;4;
63662;PMS5003;49815;51.618;0.336;2022-10-16T03:39:17;3;3;
63662;PMS5003;49815;51.618;0.336;2022-10-16T03:41:42;6;4;
63662;PMS5003;49815;51.618;0.336;2022-10-16T03:44:08;4;3;
63662;PMS5003;49815;51.618;0.336;2022-10-16T03:46:33;5;2;
63662;PMS5003;49815;51.618;0.336;2022-10-16T03:48:59;2;1;
63662;PMS5003;49815;51.618;0.336;2022-10-16T03:51:24;5;5;
63662;PMS5003;49815;51.618;0.336;2022-10-16T03:53:49;4;2;
63662;PMS5003;49815;51.618;0.336;2022-10-16T03:56:15;4;4;
63662;PMS5003;49815;51.618;0.336;2022-10-16T03:58:40;3;3;
63662;PMS5003;49815;51.618;0.336;2022-10-16T04:01:06;6;5;
63662;PMS5003;49815;51.618;0.336;2022-10-16T04:03:31;5;2;
63662;PMS5003;49815;51.618;0.336;2022-10-16T04:05:57;4;2;
63662;PMS5003;49815;51.618;0.336;2022-10-16T04:08:22;5;3;
63662;PMS5003;49815;51.618;0.336;2022-10-16T04:10:47;5;3;
63662;PMS5003;49815;51.618;0.336;2022-10-16T04:13:13;6;2;
63662;PMS5003;49815;51.618;0.336;2022-10-16T04:15:38;7;4;
63662;PMS5003;49815;51.618;0.336;2022-10-16T04:18:03;8;6;
63662;PMS5003;49815;51.618;0.336;2022-10-16T04:20:28;4;2;
63662;PMS5003;49815;51.618;0.336;2022-10-16T04:22:54;3;2;
63662;PMS5003;49815;51.618;0.336;2022-10-16T04:25:19;8;5;
63662;PMS5003;49815;51.618;0.336;2022-10-16T04:27:44;3;2;
63662;PMS5003;49815;51.618;0.336;2022-10-16T04:30:10;5;2;
63662;PMS5003;49815;51.618;0.336;2022-10-16T04:32:35;9;4;
63662;PMS5003;49815;51.618;0.336;2022-10-16T04:35:00;4;4;
63662;PMS5003;49815;51.618;0.336;2022-10-16T04:37:26;11;6;
63662;PMS5003;49815;51.618;0.336;2022-10-16T04:39:51;8;6;
63662;PMS5003;49815;51.618;0.336;2022-10-16T04:42:17;9;8;
63662;PMS5003;49815;51.618;0.336;2022-10-16T04:44:42;5;3;
63662;PMS5003;49815;51.618;0.336;2022-10-16T04:47:08;5;4;
63662;PMS5003;49815;51.618;0.336;2022-10-16T04:49:33;5;3;
63662;PMS5003;49815;51.618;0.336;2022-10-16T04:51:59;2;2;
63662;PMS5003;49815;51.618;0.336;2022-10-16T04:54:24;3;1;
63662;PMS5003;49815;51.618;0.336;2022-10-16T04:56:49;7;1;
63662;PMS5003;49815;51.618;0.336;2022-10-16T04:59:15;5;4;
63662;PMS5003;49815;51.618;0.336;2022-10-16T05:01:40;9;7;
63662;PMS5003;49815;51.618;0.336;2022-10-16T05:04:06;7;7;
63662;PMS5003;49815;51.618;0.336;2022-10-16T05:06:32;7;5;
63662;PMS5003;49815;51.618;0.336;2022-10-16T05:08:56;9;7;
63662;PMS5003;49815;51.618;0.336;2022-10-16T05:11:22;11;8;
63662;PMS5003;49815;51.618;0.336;2022-10-16T05:13:47;10;10;
63662;PMS5003;49815;51.618;0.336;2022-10-16T05:16:13;9;8;
63662;PMS5003;49815;51.618;0.336;2022-10-16T05:18:38;7;7;
63662;PMS5003;49815;51.618;0.336;2022-10-16T05:21:04;11;8;
63662;PMS5003;49815;51.618;0.336;2022-10-16T05:23:29;12;9;
63662;PMS5003;49815;51.618;0.336;2022-10-16T05:25:55;8;7;
63662;PMS5003;49815;51.618;0.336;2022-10-16T05:28:21;9;8;
63662;PMS5003;49815;51.618;0.336;2022-10-16T05:30:46;10;10;
63662;PMS5003;49815;51.618;0.336;2022-10-16T05:33:11;16;11;
63662;PMS5003;49815;51.618;0.336;2022-10-16T05:35:36;14;13;
63662;PMS5003;49815;51.618;0.336;2022-10-16T05:38:02;12;12;
63662;PMS5003;49815;51.618;0.336;2022-10-16T05:40:28;18;12;
63662;PMS5003;49815;51.618;0.336;2022-10-16T05:42:54;15;14;
63662;PMS5003;49815;51.618;0.336;2022-10-16T05:45:18;18;15;
63662;PMS5003;49815;51.618;0.336;2022-10-16T05:47:44;15;12;
63662;PMS5003;49815;51.618;0.336;2022-10-16T05:50:10;15;12;
63662;PMS5003;49815;51.618;0.336;2022-10-16T05:52:34;13;13;
63662;PMS5003;49815;51.618;0.336;2022-10-16T05:55:00;24;17;
63662;PMS5003;49815;51.618;0.336;2022-10-16T05:57:25;14;14;
63662;PMS5003;49815;51.618;0.336;2022-10-16T05:59:51;16;16;
63662;PMS5003;49815;51.618;0.336;2022-10-16T06:02:16;16;15;
63662;PMS5003;49815;51.618;0.336;2022-10-16T06:04:41;19;15;
63662;PMS5003;49815;51.618;0.336;2022-10-16T06:07:07;15;14;
63662;PMS5003;49815;51.618;0.336;2022-10-16T06:09:32;10;9;
63662;PMS5003;49815;51.618;0.336;2022-10-16T06:11:58;17;15;
63662;PMS5003;49815;51.618;0.336;2022-10-16T06:14:23;18;16;
63662;PMS5003;49815;51.618;0.336;2022-10-16T06:16:49;16;14;
63662;PMS5003;49815;51.618;0.336;2022-10-16T06:19:14;20;17;
63662;PMS5003;49815;51.618;0.336;2022-10-16T06:21:40;23;17;
63662;PMS5003;49815;51.618;0.336;2022-10-16T06:24:05;15;15;
63662;PMS5003;49815;51.618;0.336;2022-10-16T06:26:31;19;15;
63662;PMS5003;49815;51.618;0.336;2022-10-16T06:28:57;15;15;
63662;PMS5003;49815;51.618;0.336;2022-10-16T06:31:21;15;12;
63662;PMS5003;49815;51.618;0.336;2022-10-16T06:33:49;19;19;
63662;PMS5003;49815;51.618;0.336;2022-10-16T06:36:12;15;15;
63662;PMS5003;49815;51.618;0.336;2022-10-16T06:38:38;15;14;
63662;PMS5003;49815;51.618;0.336;2022-10-16T06:41:04;20;15;
63662;PMS5003;49815;51.618;0.336;2022-10-16T06:43:29;10;8;
63662;PMS5003;49815;51.618;0.336;2022-10-16T06:45:55;10;8;
63662;PMS5003;49815;51.618;0.336;2022-10-16T06:48:20;19;15;
63662;PMS5003;49815;51.618;0.336;2022-10-16T06:53:10;15;15;
63662;PMS5003;49815;51.618;0.336;2022-10-16T06:55:36;18;16;
63662;PMS5003;49815;51.618;0.336;2022-10-16T06:58:01;23;20;
63662;PMS5003;49815;51.618;0.336;2022-10-16T07:00:27;14;14;
63662;PMS5003;49815;51.618;0.336;2022-10-16T07:02:52;13;11;
63662;PMS5003;49815;51.618;0.336;2022-10-16T07:05:18;8;8;
63662;PMS5003;49815;51.618;0.336;2022-10-16T07:07:43;12;8;
63662;PMS5003;49815;51.618;0.336;2022-10-16T07:10:09;10;8;
63662;PMS5003;49815;51.618;0.336;2022-10-16T07:12:34;11;7;
63662;PMS5003;49815;51.618;0.336;2022-10-16T07:15:00;4;2;
63662;PMS5003;49815;51.618;0.336;2022-10-16T07:17:25;3;3;
63662;PMS5003;49815;51.618;0.336;2022-10-16T07:19:50;6;3;
63662;PMS5003;49815;51.618;0.336;2022-10-16T07:22:16;11;8;
63662;PMS5003;49815;51.618;0.336;2022-10-16T07:24:41;7;5;
63662;PMS5003;49815;51.618;0.336;2022-10-16T07:27:06;3;3;
63662;PMS5003;49815;51.618;0.336;2022-10-16T07:29:32;3;2;
63662;PMS5003;49815;51.618;0.336;2022-10-16T07:31:57;5;2;
63662;PMS5003;49815;51.618;0.336;2022-10-16T07:34:23;4;2;
63662;PMS5003;49815;51.618;0.336;2022-10-16T07:36:48;3;1;
63662;PMS5003;49815;51.618;0.336;2022-10-16T07:39:13;7;3;
63662;PMS5003;49815;51.618;0.336;2022-10-16T07:41:38;3;3;
63662;PMS5003;49815;51.618;0.336;2022-10-16T07:44:04;5;1;
63662;PMS5003;49815;51.618;0.336;2022-10-16T07:46:30;3;3;
63662;PMS5003;49815;51.618;0.336;2022-10-16T07:48:55;4;2;
63662;PMS5003;49815;51.618;0.336;2022-10-16T07:51:21;2;2;
63662;PMS5003;49815;51.618;0.336;2022-10-16T07:53:46;7;2;
63662;PMS5003;49815;51.618;0.336;2022-10-16T07:56:11;5;3;
63662;PMS5003;49815;51.618;0.336;2022-10-16T07:58:37;3;2;
63662;PMS5003;49815;51.618;0.336;2022-10-16T08:01:02;3;3;
63662;PMS5003;49815;51.618;0.336;2022-10-16T08:03:28;2;2;
63662;PMS5003;49815;51.618;0.336;2022-10-16T08:05:52;4;3;
63662;PMS5003;49815;51.618;0.336;2022-10-16T08:08:18;3;3;
63662;PMS5003;49815;51.618;0.336;2022-10-16T08:10:43;2;2;
63662;PMS5003;49815;51.618;0.336;2022-10-16T08:13:08;3;2;
63662;PMS5003;49815;51.618;0.336;2022-10-16T08:15:34;4;3;
63662;PMS5003;49815;51.618;0.336;2022-10-16T08:17:59;10;7;
63662;PMS5003;49815;51.618;0.336;2022-10-16T08:20:25;4;3;
63662;PMS5003;49815;51.618;0.336;2022-10-16T08:22:49;3;3;
63662;PMS5003;49815;51.618;0.336;2022-10-16T08:25:14;1;1;
63662;PMS5003;49815;51.618;0.336;2022-10-16T08:27:40;1;1;
63662;PMS5003;49815;51.618;0.336;2022-10-16T08:30:06;5;2;
63662;PMS5003;49815;51.618;0.336;2022-10-16T08:32:30;8;5;
63662;PMS5003;49815;51.618;0.336;2022-10-16T08:34:56;2;2;
63662;PMS5003;49815;51.618;0.336;2022-10-16T08:37:21;1;1;
63662;PMS5003;49815;51.618;0.336;2022-10-16T08:39:46;3;2;
63662;PMS5003;49815;51.618;0.336;2022-10-16T08:42:15;5;3;
63662;PMS5003;49815;51.618;0.336;2022-10-16T08:47:04;2;2;
63662;PMS5003;49815;51.618;0.336;2022-10-16T08:49:28;5;2;
63662;PMS5003;49815;51.618;0.336;2022-10-16T08:51:53;3;1;
63662;PMS5003;49815;51.618;0.336;2022-10-16T08:54:22;4;2;
63662;PMS5003;49815;51.618;0.336;2022-10-16T08:56:44;5;2;
63662;PMS5003;49815;51.618;0.336;2022-10-16T08:59:10;5;3;
63662;PMS5003;49815;51.618;0.336;2022-10-16T09:01:36;4;2;
63662;PMS5003;49815;51.618;0.336;2022-10-16T09:04:06;2;2;
63662;PMS5003;49815;51.618;0.336;2022-10-16T09:06:27;3;3;
63662;PMS5003;49815;51.618;0.336;2022-10-16T09:08:54;2;0;
63662;PMS5003;49815;51.618;0.336;2022-10-16T09:11:17;4;1;
63662;PMS5003;49815;51.618;0.336;2022-10-16T09:13:45;7;5;
63662;PMS5003;49815;51.618;0.336;2022-10-16T09:16:11;3;2;
63662;PMS5003;49815;51.618;0.336;2022-10-16T09:18:33;5;5;
63662;PMS5003;49815;51.618;0.336;2022-10-16T09:20:59;8;3;
63662;PMS5003;49815;51.618;0.336;2022-10-16T09:23:25;3;1;
63662;PMS5003;49815;51.618;0.336;2022-10-16T09:25:49;2;0;
63662;PMS5003;49815;51.618;0.336;2022-10-16T09:28:14;3;1;
63662;PMS5003;49815;51.618;0.336;2022-10-16T09:30:39;6;3;
63662;PMS5003;49815;51.618;0.336;2022-10-16T09:33:04;3;2;
63662;PMS5003;49815;51.618;0.336;2022-10-16T09:35:32;6;2;
63662;PMS5003;49815;51.618;0.336;2022-10-16T09:37:55;6;3;
63662;PMS5003;49815;51.618;0.336;2022-10-16T09:40:25;5;2;
63662;PMS5003;49815;51.618;0.336;2022-10-16T09:42:46;3;2;
63662;PMS5003;49815;51.618;0.336;2022-10-16T09:47:39;7;5;
63662;PMS5003;49815;51.618;0.336;2022-10-16T09:50:03;3;3;
63662;PMS5003;49815;51.618;0.336;2022-10-16T09:52:29;5;3;
63662;PMS5003;49815;51.618;0.336;2022-10-16T09:54:54;2;2;
63662;PMS5003;49815;51.618;0.336;2022-10-16T09:57:19;9;5;
63662;PMS5003;49815;51.618;0.336;2022-10-16T09:59:46;4;4;
63662;PMS5003;49815;51.618;0.336;2022-10-16T10:02:10;2;0;
63662;PMS5003;49815;51.618;0.336;2022-10-16T10:04:39;1;1;
63662;PMS5003;49815;51.618;0.336;2022-10-16T10:07:00;2;0;
63662;PMS5003;49815;51.618;0.336;2022-10-16T10:09:26;2;2;
63662;PMS5003;49815;51.618;0.336;2022-10-16T10:11:56;4;1;
63662;PMS5003;49815;51.618;0.336;2022-10-16T10:14:18;3;3;
63662;PMS5003;49815;51.618;0.336;2022-10-16T10:16:42;2;2;
63662;PMS5003;49815;51.618;0.336;2022-10-16T10:19:09;2;2;
63662;PMS5003;49815;51.618;0.336;2022-10-16T10:21:33;1;0;
63662;PMS5003;49815;51.618;0.336;2022-10-16T10:23:58;2;2;
63662;PMS5003;49815;51.618;0.336;2022-10-16T10:26:23;2;1;
63662;PMS5003;49815;51.618;0.336;2022-10-16T10:28:51;1;1;
63662;PMS5003;49815;51.618;0.336;2022-10-16T10:31:15;0;0;
63662;PMS5003;49815;51.618;0.336;2022-10-16T10:33:41;1;1;
63662;PMS5003;49815;51.618;0.336;2022-10-16T10:36:09;8;2;
63662;PMS5003;49815;51.618;0.336;2022-10-16T10:38:32;4;2;
63662;PMS5003;49815;51.618;0.336;2022-10-16T10:40:57;7;5;
63662;PMS5003;49815;51.618;0.336;2022-10-16T10:43:25;4;2;
63662;PMS5003;49815;51.618;0.336;2022-10-16T10:45:46;1;0;
63662;PMS5003;49815;51.618;0.336;2022-10-16T10:48:16;1;1;
63662;PMS5003;49815;51.618;0.336;2022-10-16T10:50:38;3;2;
63662;PMS5003;49815;51.618;0.336;2022-10-16T10:53:04;2;1;
63662;PMS5003;49815;51.618;0.336;2022-10-16T10:55:31;3;0;
63662;PMS5003;49815;51.618;0.336;2022-10-16T10:57:56;2;2;
63662;PMS5003;49815;51.618;0.336;2022-10-16T11:00:19;2;1;
63662;PMS5003;49815;51.618;0.336;2022-10-16T11:02:45;2;0;
63662;PMS5003;49815;51.618;0.336;2022-10-16T11:07:34;4;3;
63662;PMS5003;49815;51.618;0.336;2022-10-16T11:10:02;2;2;
63662;PMS5003;49815;51.618;0.336;2022-10-16T11:12:25;4;3;
63662;PMS5003;49815;51.618;0.336;2022-10-16T11:14:52;4;3;
63662;PMS5003;49815;51.618;0.336;2022-10-16T11:17:16;2;2;
63662;PMS5003;49815;51.618;0.336;2022-10-16T11:19:41;3;2;
63662;PMS5003;49815;51.618;0.336;2022-10-16T11:22:14;1;1;
63662;PMS5003;49815;51.618;0.336;2022-10-16T11:24:35;2;1;
63662;PMS5003;49815;51.618;0.336;2022-10-16T11:26:56;2;2;
63662;PMS5003;49815;51.618;0.336;2022-10-16T11:29:23;4;3;
63662;PMS5003;49815;51.618;0.336;2022-10-16T11:31:48;0;0;
63662;PMS5003;49815;51.618;0.336;2022-10-16T11:34:13;3;1;
63662;PMS5003;49815;51.618;0.336;2022-10-16T11:36:38;1;1;
63662;PMS5003;49815;51.618;0.336;2022-10-16T11:39:04;1;1;
63662;PMS5003;49815;51.618;0.336;2022-10-16T11:41:29;2;1;
63662;PMS5003;49815;51.618;0.336;2022-10-16T11:43:58;1;1;
63662;PMS5003;49815;51.618;0.336;2022-10-16T11:46:20;2;2;
63662;PMS5003;49815;51.618;0.336;2022-10-16T11:48:46;0;0;
63662;PMS5003;49815;51.618;0.336;2022-10-16T11:51:12;3;2;
63662;PMS5003;49815;51.618;0.336;2022-10-16T11:53:39;6;2;
63662;PMS5003;49815;51.618;0.336;2022-10-16T11:56:01;3;1;
63662;PMS5003;49815;51.618;0.336;2022-10-16T11:58:26;5;1;
63662;PMS5003;49815;51.618;0.336;2022-10-16T12:00:53;6;3;
63662;PMS5003;49815;51.618;0.336;2022-10-16T12:03:17;6;1;
63662;PMS5003;49815;51.618;0.336;2022-10-16T12:05:49;0;0;
63662;PMS5003;49815;51.618;0.336;2022-10-16T12:08:08;5;3;
63662;PMS5003;49815;51.618;0.336;2022-10-16T12:10:33;3;1;
63662;PMS5003;49815;51.618;0.336;2022-10-16T12:12:58;2;1;
63662;PMS5003;49815;51.618;0.336;2022-10-16T12:15:24;5;3;
63662;PMS5003;49815;51.618;0.336;2022-10-16T12:17:48;4;2;
63662;PMS5003;49815;51.618;0.336;2022-10-16T12:20:19;3;3;
63662;PMS5003;49815;51.618;0.336;2022-10-16T12:22:41;2;1;
63662;PMS5003;49815;51.618;0.336;2022-10-16T12:25:05;5;1;
63662;PMS5003;49815;51.618;0.336;2022-10-16T12:27:30;4;1;
63662;PMS5003;49815;51.618;0.336;2022-10-16T12:29:55;3;1;
63662;PMS5003;49815;51.618;0.336;2022-10-16T12:32:22;0;0;
63662;PMS5003;49815;51.618;0.336;2022-10-16T12:34:45;6;3;
63662;PMS5003;49815;51.618;0.336;2022-10-16T12:37:12;3;3;
63662;PMS5003;49815;51.618;0.336;2022-10-16T12:39:36;1;0;
63662;PMS5003;49815;51.618;0.336;2022-10-16T12:42:02;1;1;
63662;PMS5003;49815;51.618;0.336;2022-10-16T12:44:27;3;3;
63662;PMS5003;49815;51.618;0.336;2022-10-16T12:46:52;6;2;
63662;PMS5003;49815;51.618;0.336;2022-10-16T12:49:21;3;1;
63662;PMS5003;49815;51.618;0.336;2022-10-16T12:51:42;1;1;
63662;PMS5003;49815;51.618;0.336;2022-10-16T12:54:12;5;2;
63662;PMS5003;49815;51.618;0.336;2022-10-16T12:56:38;3;1;
63662;PMS5003;49815;51.618;0.336;2022-10-16T12:59:02;5;3;
63662;PMS5003;49815;51.618;0.336;2022-10-16T13:01:28;7;2;
63662;PMS5003;49815;51.618;0.336;2022-10-16T13:03:56;2;2;
63662;PMS5003;49815;51.618;0.336;2022-10-16T13:06:18;2;2;
63662;PMS5003;49815;51.618;0.336;2022-10-16T13:08:45;2;2;
63662;PMS5003;49815;51.618;0.336;2022-10-16T13:11:07;4;1;
63662;PMS5003;49815;51.618;0.336;2022-10-16T13:13:35;4;2;
63662;PMS5003;49815;51.618;0.336;2022-10-16T13:15:58;4;1;
63662;PMS5003;49815;51.618;0.336;2022-10-16T13:18:22;1;1;
63662;PMS5003;49815;51.618;0.336;2022-10-16T13:20:53;7;3;
63662;PMS5003;49815;51.618;0.336;2022-10-16T13:23:13;0;0;
63662;PMS5003;49815;51.618;0.336;2022-10-16T13:25:40;4;3;
63662;PMS5003;49815;51.618;0.336;2022-10-16T13:28:02;5;2;
63662;PMS5003;49815;51.618;0.336;2022-10-16T13:30:28;7;4;
63662;PMS5003;49815;51.618;0.336;2022-10-16T13:32:54;8;2;
63662;PMS5003;49815;51.618;0.336;2022-10-16T13:35:18;6;3;
63662;PMS5003;49815;51.618;0.336;2022-10-16T13:37:42;7;2;
63662;PMS5003;49815;51.618;0.336;2022-10-16T13:40:12;6;3;
63662;PMS5003;49815;51.618;0.336;2022-10-16T13:42:34;5;2;
63662;PMS5003;49815;51.618;0.336;2022-10-16T13:44:59;8;2;
63662;PMS5003;49815;51.618;0.336;2022-10-16T13:47:25;5;2;
63662;PMS5003;49815;51.618;0.336;2022-10-16T13:52:15;2;2;
63662;PMS5003;49815;51.618;0.336;2022-10-16T13:54:40;2;2;
63662;PMS5003;49815;51.618;0.336;2022-10-16T13:57:05;3;3;
63662;PMS5003;49815;51.618;0.336;2022-10-16T13:59:33;4;4;
63662;PMS5003;49815;51.618;0.336;2022-10-16T14:01:56;6;4;
63662;PMS5003;49815;51.618;0.336;2022-10-16T14:04:21;4;2;
63662;PMS5003;49815;51.618;0.336;2022-10-16T14:06:48;4;2;
63662;PMS5003;49815;51.618;0.336;2022-10-16T14:09:14;5;2;
63662;PMS5003;49815;51.618;0.336;2022-10-16T14:11:42;3;2;
63662;PMS5003;49815;51.618;0.336;2022-10-16T14:14:02;4;2;
63662;PMS5003;49815;51.618;0.336;2022-10-16T14:16:28;2;2;
63662;PMS5003;49815;51.618;0.336;2022-10-16T14:18:55;5;2;
63662;PMS5003;49815;51.618;0.336;2022-10-16T14:21:19;5;4;
63662;PMS5003;49815;51.618;0.336;2022-10-16T14:23:44;7;4;
63662;PMS5003;49815;51.618;0.336;2022-10-16T14:26:13;4;4;
63662;PMS5003;49815;51.618;0.336;2022-10-16T14:28:34;5;3;
63662;PMS5003;49815;51.618;0.336;2022-10-16T14:31:00;9;3;
63662;PMS5003;49815;51.618;0.336;2022-10-16T14:33:31;3;2;
63662;PMS5003;49815;51.618;0.336;2022-10-16T14:36:00;4;2;
63662;PMS5003;49815;51.618;0.336;2022-10-16T14:38:17;4;2;
63662;PMS5003;49815;51.618;0.336;2022-10-16T14:40:45;9;4;
63662;PMS5003;49815;51.618;0.336;2022-10-16T14:43:06;4;4;
63662;PMS5003;49815;51.618;0.336;2022-10-16T14:45:32;3;3;
63662;PMS5003;49815;51.618;0.336;2022-10-16T14:47:57;3;3;
63662;PMS5003;49815;51.618;0.336;2022-10-16T14:50:21;7;3;
63662;PMS5003;49815;51.618;0.336;2022-10-16T14:52:47;4;4;
63662;PMS5003;49815;51.618;0.336;2022-10-16T14:55:12;3;3;
63662;PMS5003;49815;51.618;0.336;2022-10-16T14:57:37;6;4;
63662;PMS5003;49815;51.618;0.336;2022-10-16T15:00:02;5;3;
63662;PMS5003;49815;51.618;0.336;2022-10-16T15:02:28;6;2;
63662;PMS5003;49815;51.618;0.336;2022-10-16T15:04:53;4;3;
63662;PMS5003;49815;51.618;0.336;2022-10-16T15:07:18;2;2;
63662;PMS5003;49815;51.618;0.336;2022-10-16T15:09:43;8;5;
63662;PMS5003;49815;51.618;0.336;2022-10-16T15:12:08;6;4;
63662;PMS5003;49815;51.618;0.336;2022-10-16T15:14:34;2;2;
63662;PMS5003;49815;51.618;0.336;2022-10-16T15:16:59;5;1;
63662;PMS5003;49815;51.618;0.336;2022-10-16T15:19:25;4;4;
63662;PMS5003;49815;51.618;0.336;2022-10-16T15:21:50;4;3;
63662;PMS5003;49815;51.618;0.336;2022-10-16T15:24:16;7;2;
63662;PMS5003;49815;51.618;0.336;2022-10-16T15:26:40;6;3;
63662;PMS5003;49815;51.618;0.336;2022-10-16T15:29:06;6;5;
63662;PMS5003;49815;51.618;0.336;2022-10-16T15:31:31;9;7;
63662;PMS5003;49815;51.618;0.336;2022-10-16T15:33:57;13;13;
63662;PMS5003;49815;51.618;0.336;2022-10-16T15:36:26;17;12;
63662;PMS5003;49815;51.618;0.336;2022-10-16T15:38:48;12;7;
63662;PMS5003;49815;51.618;0.336;2022-10-16T15:41:13;24;21;
63662;PMS5003;49815;51.618;0.336;2022-10-16T15:43:39;21;20;
63662;PMS5003;49815;51.618;0.336;2022-10-16T15:46:06;19;16;
63662;PMS5003;49815;51.618;0.336;2022-10-16T15:48:31;16;13;
63662;PMS5003;49815;51.618;0.336;2022-10-16T15:50:56;11;10;
63662;PMS5003;49815;51.618;0.336;2022-10-16T15:53:21;9;8;
63662;PMS5003;49815;51.618;0.336;2022-10-16T15:55:46;18;14;
63662;PMS5003;49815;51.618;0.336;2022-10-16T15:58:12;27;19;
63662;PMS5003;49815;51.618;0.336;2022-10-16T16:00:37;13;9;
63662;PMS5003;49815;51.618;0.336;2022-10-16T16:03:02;10;9;
63662;PMS5003;49815;51.618;0.336;2022-10-16T16:05:28;14;11;
63662;PMS5003;49815;51.618;0.336;2022-10-16T16:07:53;11;11;
63662;PMS5003;49815;51.618;0.336;2022-10-16T16:10:19;6;5;
63662;PMS5003;49815;51.618;0.336;2022-10-16T16:12:45;6;3;
63662;PMS5003;49815;51.618;0.336;2022-10-16T16:15:10;3;3;
63662;PMS5003;49815;51.618;0.336;2022-10-16T16:17:35;5;4;
63662;PMS5003;49815;51.618;0.336;2022-10-16T16:20:00;5;2;
63662;PMS5003;49815;51.618;0.336;2022-10-16T16:22:25;4;4;
63662;PMS5003;49815;51.618;0.336;2022-10-16T16:24:50;8;7;
63662;PMS5003;49815;51.618;0.336;2022-10-16T16:27:17;3;3;
63662;PMS5003;49815;51.618;0.336;2022-10-16T16:29:41;8;6;
63662;PMS5003;49815;51.618;0.336;2022-10-16T16:32:07;14;8;
63662;PMS5003;49815;51.618;0.336;2022-10-16T16:34:33;5;2;
63662;PMS5003;49815;51.618;0.336;2022-10-16T16:36:58;8;7;
63662;PMS5003;49815;51.618;0.336;2022-10-16T16:39:23;7;6;
63662;PMS5003;49815;51.618;0.336;2022-10-16T16:41:48;6;3;
63662;PMS5003;49815;51.618;0.336;2022-10-16T16:44:15;5;5;